createdAt,value
2023-05-11T00:00:16.219Z,10.30
2023-05-11T00:02:21.345Z,11.18
2023-05-11T00:04:27.797Z,11.00
2023-05-11T00:06:32.787Z,12.45
2023-05-11T00:08:38.009Z,11.68
2023-05-11T00:10:43.049Z,11.48
2023-05-11T00:12:48.275Z,10.68
2023-05-11T00:14:56.167Z,10.68
2023-05-11T00:17:01.309Z,11.68
2023-05-11T00:19:06.774Z,10.27
2023-05-11T00:21:11.806Z,10.88
2023-05-11T00:23:16.633Z,10.85
2023-05-11T00:25:27.147Z,11.10
2023-05-11T00:27:32.289Z,10.63
2023-05-11T00:29:37.116Z,10.88
2023-05-11T00:31:48.299Z,11.85
2023-05-11T00:33:54.800Z,11.40
2023-05-11T00:36:00.556Z,12.07
2023-05-11T00:38:05.790Z,12.85
2023-05-11T00:40:11.964Z,12.00
2023-05-11T00:42:17.542Z,13.10
2023-05-11T00:44:22.560Z,13.60
2023-05-11T00:46:27.927Z,14.65
2023-05-11T00:48:35.587Z,15.57
2023-05-11T00:50:41.395Z,17.58
2023-05-11T00:52:46.694Z,17.45
2023-05-11T00:54:52.285Z,17.60
2023-05-11T00:56:57.552Z,17.38
2023-05-11T00:59:02.774Z,17.50
2023-05-11T01:01:08.349Z,17.80
2023-05-11T01:03:15.197Z,15.73
2023-05-11T01:05:23.260Z,13.50
2023-05-11T01:07:35.476Z,15.00
2023-05-11T01:09:51.342Z,13.33
2023-05-11T01:12:03.371Z,14.93
2023-05-11T01:14:16.053Z,14.77
2023-05-11T01:16:24.912Z,13.05
2023-05-11T01:18:34.650Z,14.20
2023-05-11T01:20:42.909Z,16.00
2023-05-11T01:23:14.678Z,13.77
2023-05-11T01:25:35.900Z,14.43
2023-05-11T01:28:00.290Z,14.82
2023-05-11T01:30:36.653Z,14.80
2023-05-11T01:32:43.444Z,13.75
2023-05-11T01:34:49.838Z,17.38
2023-05-11T01:37:00.057Z,13.80
2023-05-11T01:39:08.653Z,14.80
2023-05-11T01:41:17.785Z,14.10
2023-05-11T01:43:31.618Z,14.65
2023-05-11T01:45:43.390Z,15.07
2023-05-11T01:47:52.075Z,14.85
2023-05-11T01:49:59.049Z,15.93
2023-05-11T01:52:05.637Z,14.60
2023-05-11T01:54:12.325Z,14.73
2023-05-11T01:56:19.324Z,13.38
2023-05-11T01:58:27.607Z,15.07
2023-05-11T02:00:33.389Z,15.00
2023-05-11T02:02:41.720Z,14.60
2023-05-11T02:04:48.454Z,16.33
2023-05-11T02:06:56.460Z,15.25
2023-05-11T02:09:03.542Z,14.40
2023-05-11T02:11:10.589Z,16.40
2023-05-11T02:13:18.752Z,15.57
2023-05-11T02:15:26.141Z,17.13
2023-05-11T02:17:32.369Z,15.98
2023-05-11T02:19:45.355Z,15.77
2023-05-11T02:21:52.570Z,16.45
2023-05-11T02:23:58.094Z,16.63
2023-05-11T02:26:03.662Z,16.52
2023-05-11T02:28:09.066Z,16.50
2023-05-11T02:30:14.836Z,15.40
2023-05-11T02:32:23.218Z,14.93
2023-05-11T02:34:32.303Z,14.27
2023-05-11T02:36:42.005Z,16.67
2023-05-11T02:38:50.775Z,15.70
2023-05-11T02:41:02.064Z,16.05
2023-05-11T02:43:11.825Z,16.55
2023-05-11T02:45:19.946Z,13.57
2023-05-11T02:47:30.379Z,14.38
2023-05-11T02:49:38.366Z,16.63
2023-05-11T02:51:48.924Z,15.27
2023-05-11T02:53:57.680Z,15.40
2023-05-11T02:56:03.600Z,15.18
2023-05-11T02:58:08.640Z,16.10
2023-05-11T03:00:14.656Z,15.85
2023-05-11T03:02:19.774Z,16.17
2023-05-11T03:04:28.108Z,15.43
2023-05-11T03:06:33.601Z,15.82
2023-05-11T03:08:41.904Z,16.10
2023-05-11T03:10:47.542Z,16.42
2023-05-11T03:12:52.711Z,16.02
2023-05-11T03:14:58.046Z,17.15
2023-05-11T03:17:04.628Z,17.58
2023-05-11T03:19:10.542Z,16.42
2023-05-11T03:21:20.964Z,18.30
2023-05-11T03:23:26.747Z,16.58
2023-05-11T03:25:35.080Z,16.42
2023-05-11T03:27:44.823Z,17.45
2023-05-11T03:29:52.089Z,18.15
2023-05-11T03:31:57.875Z,16.45
2023-05-11T03:34:02.765Z,18.98
2023-05-11T03:36:09.126Z,17.70
2023-05-11T03:38:15.932Z,15.90
2023-05-11T03:40:23.883Z,18.05
2023-05-11T03:42:34.083Z,18.02
2023-05-11T03:44:40.085Z,17.52
2023-05-11T03:46:48.388Z,18.23
2023-05-11T03:48:54.899Z,17.95
2023-05-11T03:51:07.461Z,19.38
2023-05-11T03:53:12.906Z,18.13
2023-05-11T03:55:18.070Z,17.75
2023-05-11T03:57:23.012Z,17.67
2023-05-11T03:59:30.925Z,18.40
2023-05-11T04:01:36.328Z,19.77
2023-05-11T04:03:51.753Z,17.10
2023-05-11T04:05:57.572Z,16.88
2023-05-11T04:08:05.746Z,17.33
2023-05-11T04:10:11.961Z,18.45
2023-05-11T04:12:17.665Z,17.20
2023-05-11T04:14:23.115Z,18.27
2023-05-11T04:16:31.119Z,18.02
2023-05-11T04:18:36.218Z,19.17
2023-05-11T04:20:41.171Z,18.30
2023-05-11T04:22:46.302Z,17.83
2023-05-11T04:24:51.183Z,17.35
2023-05-11T04:27:00.421Z,17.25
2023-05-11T04:29:05.402Z,19.85
2023-05-11T04:31:10.695Z,17.70
2023-05-11T04:33:20.993Z,16.25
2023-05-11T04:35:26.606Z,19.10
2023-05-11T04:37:31.995Z,17.77
2023-05-11T04:39:37.093Z,17.15
2023-05-11T04:41:42.155Z,17.98
2023-05-11T04:43:50.167Z,20.40
2023-05-11T04:45:54.979Z,18.83
2023-05-11T04:48:00.715Z,17.50
2023-05-11T04:50:09.876Z,18.02
2023-05-11T04:52:14.942Z,18.60
2023-05-11T04:54:19.850Z,19.00
2023-05-11T04:56:27.840Z,18.75
2023-05-11T04:58:32.849Z,19.35
2023-05-11T05:00:38.733Z,19.35
2023-05-11T05:02:43.651Z,19.30
2023-05-11T05:04:48.481Z,18.30
2023-05-11T05:06:56.110Z,18.73
2023-05-11T05:09:01.128Z,18.48
2023-05-11T05:11:06.086Z,20.20
2023-05-11T05:13:11.072Z,18.60
2023-05-11T05:15:15.931Z,18.08
2023-05-11T05:17:20.804Z,16.55
2023-05-11T05:19:26.709Z,17.17
2023-05-11T05:21:32.614Z,17.73
2023-05-11T05:23:40.066Z,16.75
2023-05-11T05:25:45.028Z,19.92
2023-05-11T05:27:50.387Z,18.73
2023-05-11T05:29:55.895Z,17.23
2023-05-11T05:32:01.131Z,17.92
2023-05-11T05:34:06.881Z,18.27
2023-05-11T05:36:12.252Z,16.67
2023-05-11T05:38:17.551Z,15.98
2023-05-11T05:40:25.293Z,16.98
2023-05-11T05:42:33.540Z,15.98
2023-05-11T05:44:38.369Z,16.52
2023-05-11T05:46:43.854Z,16.17
2023-05-11T05:48:48.778Z,18.55
2023-05-11T05:50:53.950Z,17.98
2023-05-11T05:52:59.593Z,20.52
2023-05-11T05:55:04.699Z,17.98
2023-05-11T05:57:13.781Z,18.50
2023-05-11T05:59:23.617Z,18.75
2023-05-11T06:01:29.030Z,17.05
2023-05-11T06:03:33.926Z,17.15
2023-05-11T06:05:39.068Z,18.88
2023-05-11T06:07:46.644Z,17.45
2023-05-11T06:09:56.634Z,19.77
2023-05-11T06:12:02.274Z,18.75
2023-05-11T06:14:09.906Z,17.60
2023-05-11T06:16:15.092Z,17.65
2023-05-11T06:18:20.275Z,19.58
2023-05-11T06:20:28.150Z,20.33
2023-05-11T06:22:33.355Z,19.70
2023-05-11T06:24:38.483Z,20.13
2023-05-11T06:26:43.936Z,20.05
2023-05-11T06:28:48.786Z,20.85
2023-05-11T06:30:59.587Z,20.65
2023-05-11T06:33:04.592Z,23.25
2023-05-11T06:35:10.524Z,19.27
2023-05-11T06:37:20.585Z,21.55
2023-05-11T06:39:28.046Z,21.50
2023-05-11T06:41:33.211Z,21.30
2023-05-11T06:43:38.212Z,19.75
2023-05-11T06:45:43.162Z,21.52
2023-05-11T06:47:51.012Z,20.65
2023-05-11T06:49:57.930Z,21.38
2023-05-11T06:52:02.949Z,22.08
2023-05-11T06:54:08.088Z,20.58
2023-05-11T06:56:12.936Z,16.98
2023-05-11T06:58:20.760Z,17.52
2023-05-11T07:00:25.985Z,19.00
2023-05-11T07:02:32.523Z,16.30
2023-05-11T07:04:40.440Z,16.33
2023-05-11T07:06:47.120Z,16.45
2023-05-11T07:08:52.099Z,17.13
2023-05-11T07:10:57.643Z,18.70
2023-05-11T07:13:02.595Z,16.58
2023-05-11T07:15:08.298Z,15.93
2023-05-11T07:17:13.229Z,16.92
2023-05-11T07:19:21.519Z,16.58
2023-05-11T07:21:30.909Z,18.02
2023-05-11T07:23:35.736Z,17.48
2023-05-11T07:25:40.910Z,20.23
2023-05-11T07:27:45.804Z,19.45
2023-05-11T07:29:50.887Z,19.50
2023-05-11T07:31:56.217Z,21.27
2023-05-11T07:34:01.421Z,22.13
2023-05-11T07:36:06.873Z,19.48
2023-05-11T07:38:14.369Z,21.80
2023-05-11T07:40:19.563Z,23.17
2023-05-11T07:42:24.962Z,25.05
2023-05-11T07:44:32.678Z,23.33
2023-05-11T07:46:37.899Z,24.05
2023-05-11T07:48:42.886Z,23.30
2023-05-11T07:50:50.569Z,24.48
2023-05-11T07:52:56.341Z,24.80
2023-05-11T07:55:03.969Z,26.38
2023-05-11T07:57:09.268Z,26.02
2023-05-11T07:59:14.460Z,22.95
2023-05-11T08:01:19.418Z,20.95
2023-05-11T08:03:24.287Z,21.30
2023-05-11T08:05:33.378Z,24.13
2023-05-11T08:07:40.999Z,25.05
2023-05-11T08:09:46.481Z,23.40
2023-05-11T08:11:56.336Z,21.00
2023-05-11T08:14:01.496Z,19.92
2023-05-11T08:16:06.926Z,19.75
2023-05-11T08:18:12.159Z,15.32
2023-05-11T08:20:17.280Z,16.73
2023-05-11T08:22:22.244Z,17.48
2023-05-11T08:24:27.728Z,17.60
2023-05-11T08:26:33.379Z,16.80
2023-05-11T08:28:42.883Z,15.52
2023-05-11T08:30:47.867Z,16.30
2023-05-11T08:32:58.689Z,16.42
2023-05-11T08:35:04.512Z,15.88
2023-05-11T08:37:09.690Z,14.70
2023-05-11T08:39:14.751Z,16.83
2023-05-11T08:41:20.551Z,18.35
2023-05-11T08:43:27.342Z,17.13
2023-05-11T08:45:37.904Z,16.95
2023-05-11T08:47:43.344Z,17.92
2023-05-11T08:49:51.420Z,18.73
2023-05-11T08:51:57.347Z,17.85
2023-05-11T08:54:02.230Z,16.20
2023-05-11T08:56:10.627Z,19.48
2023-05-11T08:58:19.819Z,18.10
2023-05-11T09:00:27.226Z,15.40
2023-05-11T09:02:36.303Z,16.52
2023-05-11T09:04:41.858Z,16.13
2023-05-11T09:06:47.199Z,17.95
2023-05-11T09:08:52.480Z,19.42
2023-05-11T09:10:57.830Z,18.48
2023-05-11T09:13:02.707Z,17.15
2023-05-11T09:15:08.744Z,18.15
2023-05-11T09:17:16.012Z,20.65
2023-05-11T09:19:23.902Z,19.80
2023-05-11T09:21:29.509Z,22.20
2023-05-11T09:23:35.498Z,19.17
2023-05-11T09:25:41.081Z,18.58
2023-05-11T09:27:46.589Z,19.55
2023-05-11T09:29:52.247Z,18.50
2023-05-11T09:31:57.738Z,19.98
2023-05-11T09:34:12.582Z,17.92
2023-05-11T09:36:32.769Z,17.73
2023-05-11T09:38:37.728Z,17.00
2023-05-11T09:40:46.713Z,17.45
2023-05-11T09:42:51.507Z,19.40
2023-05-11T09:44:57.056Z,19.50
2023-05-11T09:47:14.168Z,17.75
2023-05-11T09:49:19.447Z,17.17
2023-05-11T09:51:34.880Z,17.25
2023-05-11T09:53:46.178Z,17.63
2023-05-11T09:55:56.086Z,16.50
2023-05-11T09:58:02.610Z,15.90
2023-05-11T10:00:17.379Z,17.42
2023-05-11T10:02:24.686Z,14.43
2023-05-11T10:04:32.876Z,18.55
2023-05-11T10:06:53.370Z,14.98
2023-05-11T10:08:58.595Z,13.23
2023-05-11T10:11:05.125Z,11.85
2023-05-11T10:13:10.154Z,10.50
2023-05-11T10:15:16.747Z,9.50
2023-05-11T10:17:22.534Z,9.70
2023-05-11T10:19:27.752Z,10.50
2023-05-11T10:21:33.891Z,10.15
2023-05-11T10:23:42.307Z,11.43
2023-05-11T10:25:48.249Z,13.15
2023-05-11T10:27:53.980Z,13.35
2023-05-11T10:30:02.001Z,13.80
2023-05-11T10:32:09.639Z,15.00
2023-05-11T10:34:15.917Z,14.57
2023-05-11T10:36:21.898Z,13.73
2023-05-11T10:38:27.861Z,13.00
2023-05-11T10:40:39.568Z,12.80
2023-05-11T10:43:12.950Z,11.27
2023-05-11T10:45:22.099Z,10.75
2023-05-11T10:47:49.444Z,11.57
2023-05-11T10:50:16.753Z,11.50
2023-05-11T10:52:39.153Z,12.35
2023-05-11T10:54:57.568Z,14.05
2023-05-11T10:57:21.861Z,13.80
2023-05-11T10:59:49.284Z,15.30
2023-05-11T11:01:59.160Z,16.20
2023-05-11T11:04:07.863Z,16.67
2023-05-11T11:06:26.727Z,17.75
2023-05-11T11:08:31.673Z,18.40
2023-05-11T11:10:41.073Z,18.38
2023-05-11T11:13:04.734Z,16.27
2023-05-11T11:15:11.194Z,13.80
2023-05-11T11:17:35.689Z,12.63
2023-05-11T11:19:43.711Z,9.35
2023-05-11T11:21:48.963Z,8.00
2023-05-11T11:23:53.989Z,5.13
2023-05-11T11:25:59.207Z,4.65
2023-05-11T11:28:06.812Z,3.90
2023-05-11T11:30:31.168Z,5.10
2023-05-11T11:32:37.690Z,6.00
2023-05-11T11:34:42.597Z,6.30
2023-05-11T11:37:05.937Z,4.93
2023-05-11T11:41:33.449Z,5.55
2023-05-11T11:43:56.374Z,7.13
2023-05-11T11:46:02.437Z,12.32
2023-05-11T11:48:13.437Z,11.77
2023-05-11T11:50:21.075Z,12.20
2023-05-11T11:52:37.105Z,12.57
2023-05-11T11:54:42.966Z,13.07
2023-05-11T11:56:52.088Z,11.13
2023-05-11T11:59:10.350Z,11.40
2023-05-11T12:01:16.674Z,12.13
2023-05-11T12:03:28.851Z,13.50
2023-05-11T12:05:35.887Z,12.43
2023-05-11T12:07:44.995Z,12.77
2023-05-11T12:09:53.159Z,13.55
2023-05-11T12:12:02.574Z,12.32
2023-05-11T12:14:13.725Z,10.65
2023-05-11T12:16:21.443Z,10.32
2023-05-11T12:18:27.606Z,12.02
2023-05-11T12:20:35.793Z,11.52
2023-05-11T12:22:41.903Z,13.00
2023-05-11T12:24:46.985Z,13.38
2023-05-11T12:26:51.952Z,11.98
2023-05-11T12:29:14.374Z,13.10
2023-05-11T12:31:22.413Z,10.40
2023-05-11T12:33:27.575Z,11.23
2023-05-11T12:35:35.008Z,11.40
2023-05-11T12:37:44.397Z,10.55
2023-05-11T12:39:49.726Z,10.93
2023-05-11T12:41:57.366Z,14.07
2023-05-11T12:44:02.561Z,9.82
2023-05-11T12:46:10.593Z,10.25
2023-05-11T12:48:16.546Z,10.45
2023-05-11T12:50:24.543Z,10.48
2023-05-11T12:52:30.384Z,9.65
2023-05-11T12:54:38.398Z,9.30
2023-05-11T12:56:49.789Z,8.05
2023-05-11T12:58:54.756Z,10.85
2023-05-11T13:01:01.934Z,8.70
2023-05-11T13:03:09.753Z,12.70
2023-05-11T13:05:16.929Z,12.05
2023-05-11T13:07:27.962Z,10.70
2023-05-11T13:09:33.067Z,8.85
2023-05-11T13:11:38.002Z,9.13
2023-05-11T13:13:42.942Z,8.90
2023-05-11T13:15:54.587Z,8.30
2023-05-11T13:18:01.881Z,7.88
2023-05-11T13:20:27.713Z,8.70
2023-05-11T13:22:33.090Z,7.72
2023-05-11T13:24:37.992Z,6.68
2023-05-11T13:26:42.861Z,7.65
2023-05-11T13:28:58.181Z,7.72
2023-05-11T13:31:07.236Z,8.75
2023-05-11T13:33:12.495Z,11.07
2023-05-11T13:35:18.391Z,13.32
2023-05-11T13:37:26.386Z,10.68
2023-05-11T13:39:31.552Z,10.70
2023-05-11T13:41:36.881Z,10.63
2023-05-11T13:43:41.853Z,10.13
2023-05-11T13:45:46.945Z,11.10
2023-05-11T13:47:52.024Z,10.05
2023-05-11T13:49:57.458Z,10.27
2023-05-11T13:52:02.443Z,11.57
2023-05-11T13:54:10.282Z,12.05
2023-05-11T13:56:15.382Z,12.82
2023-05-11T13:58:20.758Z,12.50
2023-05-11T14:00:26.268Z,12.80
2023-05-11T14:02:31.801Z,11.85
2023-05-11T14:04:36.924Z,13.20
2023-05-11T14:06:43.005Z,12.32
2023-05-11T14:08:48.036Z,14.10
2023-05-11T14:10:55.975Z,13.45
2023-05-11T14:13:00.866Z,11.77
2023-05-11T14:15:06.181Z,12.25
2023-05-11T14:17:11.441Z,10.05
2023-05-11T14:19:17.144Z,10.82
2023-05-11T14:21:22.267Z,9.48
2023-05-11T14:23:27.245Z,10.50
2023-05-11T14:25:32.403Z,9.90
2023-05-11T14:27:39.871Z,10.15
2023-05-11T14:29:45.617Z,10.68
2023-05-11T14:31:50.670Z,11.55
2023-05-11T14:33:57.088Z,12.18
2023-05-11T14:36:02.540Z,12.30
2023-05-11T14:38:07.585Z,10.82
2023-05-11T14:40:13.109Z,11.75
2023-05-11T14:42:18.703Z,11.25
2023-05-11T14:44:27.432Z,12.38
2023-05-11T14:46:32.880Z,11.25
2023-05-11T14:48:37.844Z,12.20
2023-05-11T14:50:43.256Z,11.73
2023-05-11T14:52:48.152Z,11.32
2023-05-11T14:54:53.131Z,10.38
2023-05-11T14:56:59.566Z,9.52
2023-05-11T14:59:04.827Z,10.13
2023-05-11T15:01:12.286Z,13.10
2023-05-11T15:03:17.265Z,10.93
2023-05-11T15:05:22.195Z,8.00
2023-05-11T15:07:27.383Z,8.65
2023-05-11T15:09:32.340Z,9.18
2023-05-11T15:11:37.569Z,8.02
2023-05-11T15:13:42.672Z,8.23
2023-05-11T15:15:47.642Z,7.95
2023-05-11T15:17:56.099Z,8.70
2023-05-11T15:20:01.033Z,7.85
2023-05-11T15:22:05.864Z,7.10
2023-05-11T15:24:11.179Z,7.85
2023-05-11T15:26:16.749Z,7.35
2023-05-11T15:28:21.929Z,8.20
2023-05-11T15:30:27.750Z,7.47
2023-05-11T15:32:33.077Z,7.85
2023-05-11T15:34:55.473Z,7.63
2023-05-11T15:37:03.765Z,7.10
2023-05-11T15:39:09.240Z,6.65
2023-05-11T15:41:14.120Z,6.60
2023-05-11T15:43:22.207Z,6.63
2023-05-11T15:45:31.366Z,7.45
2023-05-11T15:47:38.583Z,6.05
2023-05-11T15:49:46.724Z,6.50
2023-05-11T15:51:51.508Z,7.78
2023-05-11T15:53:58.824Z,7.10
2023-05-11T15:56:03.768Z,7.68
2023-05-11T15:58:10.667Z,6.97
2023-05-11T16:00:16.869Z,6.70
2023-05-11T16:02:22.243Z,8.18
2023-05-11T16:04:27.746Z,6.50
2023-05-11T16:06:36.673Z,6.45
2023-05-11T16:08:41.897Z,6.20
2023-05-11T16:10:46.972Z,7.35
2023-05-11T16:12:51.812Z,7.20
2023-05-11T16:14:57.818Z,6.82
2023-05-11T16:17:02.772Z,6.35
2023-05-11T16:19:08.019Z,7.00
2023-05-11T16:21:13.166Z,6.35
2023-05-11T16:23:21.693Z,6.10
2023-05-11T16:25:27.472Z,7.43
2023-05-11T16:27:33.888Z,7.03
2023-05-11T16:29:42.583Z,6.93
2023-05-11T16:31:47.638Z,6.80
2023-05-11T16:33:52.714Z,7.70
2023-05-11T16:35:57.719Z,7.20
2023-05-11T16:38:02.952Z,7.07
2023-05-11T16:40:12.070Z,6.90
2023-05-11T16:42:17.447Z,6.43
2023-05-11T16:44:22.366Z,6.88
2023-05-11T16:46:27.634Z,6.00
2023-05-11T16:48:35.293Z,6.22
2023-05-11T16:50:43.392Z,5.63
2023-05-11T16:52:48.936Z,6.95
2023-05-11T16:54:53.957Z,5.63
2023-05-11T16:57:01.656Z,6.03
2023-05-11T16:59:06.775Z,4.30
2023-05-11T17:01:12.431Z,5.22
2023-05-11T17:03:17.780Z,5.35
2023-05-11T17:05:23.521Z,5.20
2023-05-11T17:07:32.039Z,5.80
2023-05-11T17:09:37.286Z,6.22
2023-05-11T17:11:42.245Z,6.85
2023-05-11T17:13:50.686Z,6.53
2023-05-11T17:15:57.487Z,8.40
2023-05-11T17:18:03.126Z,8.02
2023-05-11T17:20:10.416Z,7.65
2023-05-11T17:22:15.575Z,8.35
2023-05-11T17:24:20.424Z,8.43
2023-05-11T17:26:35.401Z,8.20
2023-05-11T17:30:57.336Z,7.53
2023-05-11T17:33:02.518Z,8.48
2023-05-11T17:35:08.396Z,7.18
2023-05-11T17:37:23.799Z,7.78
2023-05-11T17:39:36.681Z,7.95
2023-05-11T17:41:41.710Z,7.47
2023-05-11T17:43:47.817Z,6.43
2023-05-11T17:45:55.726Z,6.28
2023-05-11T17:48:00.794Z,6.63
2023-05-11T17:50:05.972Z,6.60
2023-05-11T17:52:11.385Z,7.30
2023-05-11T17:54:16.476Z,7.30
2023-05-11T17:56:24.454Z,7.03
2023-05-11T17:58:33.804Z,7.80
2023-05-11T18:00:38.750Z,8.90
2023-05-11T18:02:48.569Z,10.13
2023-05-11T18:04:54.057Z,10.32
2023-05-11T18:07:00.884Z,9.60
2023-05-11T18:09:06.134Z,9.82
2023-05-11T18:11:11.542Z,10.07
2023-05-11T18:13:17.551Z,9.95
2023-05-11T18:15:22.768Z,10.73
2023-05-11T18:17:27.680Z,11.70
2023-05-11T18:19:35.223Z,10.85
2023-05-11T18:21:40.622Z,11.48
2023-05-11T18:23:45.445Z,12.20
2023-05-11T18:25:50.543Z,11.57
2023-05-11T18:27:55.916Z,13.23
2023-05-11T18:30:02.087Z,12.20
2023-05-11T18:32:07.219Z,11.93
2023-05-11T18:34:12.515Z,11.82
2023-05-11T18:36:19.903Z,13.20
2023-05-11T18:38:27.505Z,12.65
2023-05-11T18:40:36.456Z,12.13
2023-05-11T18:42:41.311Z,11.63
2023-05-11T18:44:48.359Z,11.60
2023-05-11T18:46:53.220Z,12.57
2023-05-11T18:48:58.214Z,12.18
2023-05-11T18:51:03.099Z,11.80
2023-05-11T18:53:10.597Z,12.57
2023-05-11T18:55:15.869Z,12.13
2023-05-11T18:57:21.310Z,13.18
2023-05-11T18:59:26.663Z,12.05
2023-05-11T19:01:46.757Z,12.95
2023-05-11T19:03:52.962Z,13.57
2023-05-11T19:05:57.889Z,13.73
2023-05-11T19:08:02.838Z,14.13
2023-05-11T19:10:11.969Z,13.88
2023-05-11T19:12:18.902Z,13.32
2023-05-11T19:14:23.784Z,13.50
2023-05-11T19:16:38.171Z,13.32
2023-05-11T19:18:43.423Z,12.95
2023-05-11T19:20:48.390Z,12.18
2023-05-11T19:22:53.383Z,14.20
2023-05-11T19:25:01.040Z,13.48
2023-05-11T19:27:09.315Z,13.38
2023-05-11T19:29:17.922Z,13.85
2023-05-11T19:31:23.688Z,13.30
2023-05-11T19:33:30.887Z,13.80
2023-05-11T19:35:36.553Z,13.30
2023-05-11T19:37:41.351Z,15.23
2023-05-11T19:39:51.898Z,14.30
2023-05-11T19:41:57.237Z,14.88
2023-05-11T19:44:04.718Z,15.52
2023-05-11T19:46:10.700Z,13.98
2023-05-11T19:48:16.461Z,14.57
2023-05-11T19:50:24.376Z,14.23
2023-05-11T19:52:30.379Z,13.05
2023-05-11T19:54:35.679Z,13.52
2023-05-11T19:56:43.675Z,13.98
2023-05-11T19:58:49.054Z,13.35
2023-05-11T20:00:57.509Z,14.15
2023-05-11T20:03:02.452Z,14.07
2023-05-11T20:05:08.315Z,13.45
2023-05-11T20:07:13.378Z,14.13
2023-05-11T20:09:18.263Z,13.35
2023-05-11T20:11:30.865Z,13.93
2023-05-11T20:13:35.897Z,13.25
2023-05-11T20:15:41.540Z,14.63
2023-05-11T20:17:50.388Z,14.40
2023-05-11T20:19:56.003Z,13.15
2023-05-11T20:22:01.003Z,13.23
2023-05-11T20:24:06.474Z,12.73
2023-05-11T20:26:11.334Z,13.00
2023-05-11T20:28:16.406Z,13.90
2023-05-11T20:30:23.796Z,13.23
2023-05-11T20:32:32.098Z,14.77
2023-05-11T20:34:39.863Z,13.65
2023-05-11T20:36:44.859Z,14.00
2023-05-11T20:38:50.215Z,12.73
2023-05-11T20:41:00.230Z,12.18
2023-05-11T20:43:05.038Z,13.40
2023-05-11T20:45:11.508Z,13.00
2023-05-11T20:47:16.816Z,13.35
2023-05-11T20:49:37.400Z,13.07
2023-05-11T20:51:45.877Z,12.75
2023-05-11T20:53:51.824Z,12.38
2023-05-11T20:57:05.687Z,14.05
2023-05-11T21:00:03.881Z,12.73
2023-05-11T21:01:35.647Z,13.93
2023-05-11T21:03:43.510Z,13.60
2023-05-11T21:05:48.463Z,15.20
2023-05-11T21:07:56.111Z,15.05
2023-05-11T21:10:02.101Z,17.15
2023-05-11T21:12:07.659Z,16.25
2023-05-11T21:14:12.406Z,15.15
2023-05-11T21:16:17.561Z,15.27
2023-05-11T21:18:22.614Z,14.68
2023-05-11T21:20:27.863Z,16.02
2023-05-11T21:22:34.745Z,17.17
2023-05-11T21:24:43.112Z,14.50
2023-05-11T21:26:48.821Z,14.63
2023-05-11T21:28:53.602Z,14.38
2023-05-11T21:30:58.802Z,13.75
2023-05-11T21:33:03.845Z,13.40
2023-05-11T21:35:09.890Z,12.73
2023-05-11T21:37:16.232Z,12.50
2023-05-11T21:39:21.326Z,12.07
2023-05-11T21:41:30.318Z,10.88
2023-05-11T21:43:35.113Z,12.48
2023-05-11T21:45:39.914Z,12.75
2023-05-11T21:47:45.117Z,13.07
2023-05-11T21:49:52.968Z,12.73
2023-05-11T21:51:58.028Z,14.43
2023-05-11T21:54:03.913Z,13.07
2023-05-11T21:56:10.196Z,13.60
2023-05-11T21:58:17.993Z,11.80
2023-05-11T22:00:24.289Z,13.50
2023-05-11T22:02:31.884Z,13.30
2023-05-11T22:04:36.925Z,12.10
2023-05-11T22:06:41.837Z,13.43
2023-05-11T22:08:47.703Z,12.27
2023-05-11T22:10:52.767Z,11.90
2023-05-11T22:12:57.974Z,12.82
2023-05-11T22:15:06.485Z,12.65
2023-05-11T22:17:11.414Z,11.05
2023-05-11T22:19:16.327Z,11.25
2023-05-11T22:21:23.851Z,12.32
2023-05-11T22:23:31.416Z,10.98
2023-05-11T22:25:36.462Z,13.10
2023-05-11T22:27:41.369Z,10.75
2023-05-11T22:29:46.428Z,11.25
2023-05-11T22:31:54.042Z,10.32
2023-05-11T22:34:00.163Z,11.88
2023-05-11T22:36:05.168Z,10.82
2023-05-11T22:38:10.026Z,10.32
2023-05-11T22:40:15.992Z,11.07
2023-05-11T22:42:21.078Z,11.23
2023-05-11T22:44:28.610Z,11.25
2023-05-11T22:46:33.508Z,10.68
2023-05-11T22:48:43.857Z,11.02
2023-05-11T22:50:48.719Z,11.10
2023-05-11T22:53:01.743Z,9.40
2023-05-11T22:57:13.721Z,8.93
2023-05-11T22:59:22.380Z,9.00
2023-05-11T23:01:27.399Z,9.20
2023-05-11T23:03:32.637Z,9.63
2023-05-11T23:05:43.380Z,9.63
2023-05-11T23:07:48.260Z,9.27
2023-05-11T23:09:53.970Z,9.63
2023-05-11T23:12:02.250Z,10.25
2023-05-11T23:14:07.328Z,9.77
2023-05-11T23:16:12.433Z,9.02
2023-05-11T23:18:17.741Z,7.82
2023-05-11T23:20:23.099Z,9.65
2023-05-11T23:22:31.117Z,10.57
2023-05-11T23:24:36.665Z,9.70
2023-05-11T23:26:41.571Z,8.27
2023-05-11T23:28:46.482Z,10.10
2023-05-11T23:30:51.863Z,8.65
2023-05-11T23:32:57.434Z,7.97
2023-05-11T23:35:02.436Z,8.07
2023-05-11T23:37:07.868Z,9.45
2023-05-11T23:39:15.516Z,8.35
2023-05-11T23:41:20.525Z,9.10
2023-05-11T23:43:28.710Z,8.57
2023-05-11T23:45:34.440Z,9.25
2023-05-11T23:47:39.502Z,8.93
2023-05-11T23:49:44.606Z,9.52
2023-05-11T23:51:49.957Z,8.55
2023-05-11T23:53:54.907Z,8.93
2023-05-11T23:56:03.191Z,8.55
2023-05-11T23:58:08.117Z,9.32
